aviador You're here:

KEUF Decoded Metar

in _UNIDENTIFIED
Report Time2017-09-26 02:58:00
UTC Time2017-09-26 03:49:07
Flight Rules vfr VFR
WindCalm
Visibility9999 m
Phenomena:N/A
Clouds:N/A
Expected CloudBase > 400 ft AGL from Temp-Dew spread
CeilingNone
Temp21°C (ISA +7)
Dew Point20°C (94% RH)
QNH1013 hPa
Density Alt1,362 ft
Elevation285 ft
Report Wrong Elevation
Raw Report
METAR KEUF 260258Z AUTO 00000KT 10SM CLR 21/20 A2992 RMK AO2 SLP128
T02060200 51015=

Extra information for KEUF:More info

Metar Taf Metar & Taf Last 4 Metars F.Rules Stats Wind Profile Meteogram Temp Stats Metar ALERT Operation Metar Decoded Social comments